createdAt,value
2024-01-11T00:01:50.308Z,18.40
2024-01-11T00:04:17.910Z,18.43
2024-01-11T00:06:46.372Z,18.23
2024-01-11T00:09:13.893Z,17.60
2024-01-11T00:11:41.091Z,16.90
2024-01-11T00:14:08.376Z,16.97
2024-01-11T00:16:36.079Z,18.03
2024-01-11T00:19:04.092Z,16.87
2024-01-11T00:21:31.420Z,17.63
2024-01-11T00:23:58.911Z,18.37
2024-01-11T00:26:26.293Z,17.33
2024-01-11T00:28:53.724Z,16.20
2024-01-11T00:31:21.471Z,15.40
2024-01-11T00:33:49.279Z,17.10
2024-01-11T00:36:24.005Z,16.83
2024-01-11T00:38:51.583Z,15.73
2024-01-11T00:41:19.004Z,15.53
2024-01-11T00:43:46.637Z,15.67
2024-01-11T00:46:14.123Z,14.97
2024-01-11T00:48:41.747Z,16.47
2024-01-11T00:51:09.392Z,16.47
2024-01-11T00:53:36.981Z,15.90
2024-01-11T00:56:04.822Z,16.87
2024-01-11T00:58:32.695Z,16.27
2024-01-11T01:01:00.046Z,15.97
2024-01-11T01:03:27.624Z,15.77
2024-01-11T01:05:55.249Z,16.80
2024-01-11T01:08:22.732Z,16.63
2024-01-11T01:10:50.671Z,15.90
2024-01-11T01:13:18.061Z,16.33
2024-01-11T01:15:45.608Z,17.23
2024-01-11T01:18:13.242Z,16.47
2024-01-11T01:20:40.899Z,16.17
2024-01-11T01:23:08.320Z,16.67
2024-01-11T01:25:35.543Z,17.57
2024-01-11T01:28:02.842Z,16.93
2024-01-11T01:30:30.941Z,17.63
2024-01-11T01:32:59.177Z,16.27
2024-01-11T01:35:27.624Z,17.77
2024-01-11T01:37:55.539Z,17.10
2024-01-11T01:40:22.839Z,17.60
2024-01-11T01:42:50.774Z,17.07
2024-01-11T01:45:18.680Z,17.37
2024-01-11T01:47:47.054Z,18.50
2024-01-11T01:50:14.995Z,18.40
2024-01-11T01:52:45.555Z,17.87
2024-01-11T01:55:16.029Z,16.97
2024-01-11T01:57:44.752Z,17.27
2024-01-11T02:00:13.826Z,17.27
2024-01-11T02:02:44.599Z,18.60
2024-01-11T02:05:14.364Z,17.73
2024-01-11T02:07:42.296Z,18.37
2024-01-11T02:10:10.390Z,17.60
2024-01-11T02:12:39.578Z,17.97
2024-01-11T02:15:07.536Z,19.37
2024-01-11T02:17:35.364Z,17.57
2024-01-11T02:20:04.761Z,18.10
2024-01-11T02:22:43.383Z,18.17
2024-01-11T02:25:10.599Z,17.03
2024-01-11T02:27:51.184Z,17.03
2024-01-11T02:30:19.306Z,16.93
2024-01-11T02:32:48.926Z,18.60
2024-01-11T02:35:17.575Z,19.13
2024-01-11T02:37:46.322Z,19.57
2024-01-11T02:40:15.381Z,17.80
2024-01-11T02:42:43.020Z,18.40
2024-01-11T02:45:12.684Z,18.47
2024-01-11T02:47:41.178Z,18.90
2024-01-11T02:50:09.695Z,17.23
2024-01-11T02:52:37.256Z,18.13
2024-01-11T02:55:04.893Z,18.07
2024-01-11T02:57:32.403Z,17.30
2024-01-11T02:59:59.733Z,18.17
2024-01-11T03:02:27.176Z,18.37
2024-01-11T03:04:54.857Z,17.53
2024-01-11T03:07:22.152Z,18.17
2024-01-11T03:09:49.729Z,17.83
2024-01-11T03:12:16.946Z,18.77
2024-01-11T03:14:44.365Z,18.10
2024-01-11T03:17:11.836Z,18.13
2024-01-11T03:19:42.402Z,17.90
2024-01-11T03:22:09.724Z,18.17
2024-01-11T03:24:40.690Z,18.80
2024-01-11T03:27:08.046Z,17.10
2024-01-11T03:29:35.622Z,18.63
2024-01-11T03:32:03.077Z,17.67
2024-01-11T03:34:30.786Z,18.80
2024-01-11T03:36:58.473Z,18.23
2024-01-11T03:39:27.456Z,18.97
2024-01-11T03:41:54.849Z,18.07
2024-01-11T03:44:23.820Z,17.40
2024-01-11T03:46:51.294Z,17.23
2024-01-11T03:49:19.360Z,16.30
2024-01-11T03:51:46.652Z,17.50
2024-01-11T03:54:14.389Z,17.20
2024-01-11T03:56:41.890Z,17.97
2024-01-11T03:59:09.211Z,17.57
2024-01-11T04:01:44.127Z,18.37
2024-01-11T04:04:13.534Z,17.60
2024-01-11T04:06:41.488Z,17.77
2024-01-11T04:09:08.838Z,18.80
2024-01-11T04:11:36.890Z,18.37
2024-01-11T04:14:05.041Z,18.10
2024-01-11T04:16:32.877Z,18.07
2024-01-11T04:19:01.299Z,17.87
2024-01-11T04:21:32.589Z,17.40
2024-01-11T04:24:00.881Z,17.03
2024-01-11T04:26:28.281Z,18.23
2024-01-11T04:28:58.573Z,17.70
2024-01-11T04:31:28.434Z,17.53
2024-01-11T04:33:56.529Z,18.63
2024-01-11T04:36:24.435Z,18.47
2024-01-11T04:38:51.626Z,18.83
2024-01-11T04:41:19.739Z,19.40
2024-01-11T04:43:47.028Z,18.07
2024-01-11T04:46:18.991Z,18.93
2024-01-11T04:48:47.306Z,18.80
2024-01-11T04:51:17.057Z,18.53
2024-01-11T04:53:46.648Z,17.90
2024-01-11T04:56:17.547Z,18.23
2024-01-11T04:58:46.589Z,18.93
2024-01-11T05:01:15.469Z,18.90
2024-01-11T05:03:47.551Z,18.80
2024-01-11T05:06:23.155Z,18.40
2024-01-11T05:08:54.212Z,18.43
2024-01-11T05:11:23.289Z,17.90
2024-01-11T05:13:51.737Z,18.03
2024-01-11T05:16:27.377Z,18.53
2024-01-11T05:18:57.138Z,19.03
2024-01-11T05:21:25.903Z,17.50
2024-01-11T05:23:53.989Z,17.50
2024-01-11T05:26:22.196Z,19.07
2024-01-11T05:28:50.993Z,17.57
2024-01-11T05:31:19.457Z,16.57
2024-01-11T05:33:48.405Z,17.17
2024-01-11T05:36:17.137Z,17.33
2024-01-11T05:38:44.850Z,17.47
2024-01-11T05:41:13.492Z,17.93
2024-01-11T05:43:42.225Z,17.13
2024-01-11T05:46:10.245Z,17.87
2024-01-11T05:48:37.980Z,17.27
2024-01-11T05:51:05.375Z,17.63
2024-01-11T05:53:36.680Z,17.27
2024-01-11T05:56:10.975Z,16.07
2024-01-11T05:58:44.614Z,16.87
2024-01-11T06:01:12.209Z,16.47
2024-01-11T06:03:40.637Z,16.47
2024-01-11T06:06:09.124Z,16.17
2024-01-11T06:08:36.962Z,16.23
2024-01-11T06:11:05.662Z,16.47
2024-01-11T06:13:33.096Z,16.13
2024-01-11T06:16:00.527Z,16.50
2024-01-11T06:18:27.899Z,17.10
2024-01-11T06:20:55.361Z,16.17
2024-01-11T06:23:25.066Z,18.53
2024-01-11T06:25:52.518Z,17.47
2024-01-11T06:28:20.335Z,17.97
2024-01-11T06:30:47.707Z,18.57
2024-01-11T06:33:16.057Z,18.87
2024-01-11T06:35:43.798Z,20.03
2024-01-11T06:38:11.393Z,17.60
2024-01-11T06:40:39.356Z,17.77
2024-01-11T06:43:07.632Z,18.50
2024-01-11T06:45:37.140Z,18.57
2024-01-11T06:48:08.358Z,19.47
2024-01-11T06:50:36.395Z,20.30
2024-01-11T06:53:04.402Z,17.87
2024-01-11T06:55:32.306Z,18.17
2024-01-11T06:58:00.550Z,16.93
2024-01-11T07:00:30.786Z,18.30
2024-01-11T07:02:58.700Z,18.77
2024-01-11T07:05:26.626Z,17.37
2024-01-11T07:07:55.863Z,18.83
2024-01-11T07:10:23.235Z,17.80
2024-01-11T07:12:51.087Z,18.40
2024-01-11T07:15:18.409Z,18.13
2024-01-11T07:17:46.469Z,17.53
2024-01-11T07:20:15.887Z,17.97
2024-01-11T07:22:44.082Z,18.10
2024-01-11T07:25:11.810Z,16.33
2024-01-11T07:27:39.856Z,18.23
2024-01-11T07:30:08.180Z,17.97
2024-01-11T07:32:36.199Z,18.13
2024-01-11T07:35:06.907Z,19.40
2024-01-11T07:37:36.340Z,17.63
2024-01-11T07:40:05.714Z,17.80
2024-01-11T07:42:34.430Z,18.73
2024-01-11T07:45:04.844Z,18.70
2024-01-11T07:47:33.188Z,17.93
2024-01-11T07:50:01.089Z,18.13
2024-01-11T07:52:28.905Z,18.07
2024-01-11T07:54:56.056Z,18.00
2024-01-11T07:57:24.307Z,17.37
2024-01-11T07:59:52.463Z,17.47
2024-01-11T08:02:22.284Z,17.40
2024-01-11T08:04:51.704Z,16.00
2024-01-11T08:07:19.822Z,16.53
2024-01-11T08:09:47.931Z,15.73
2024-01-11T08:12:18.833Z,17.53
2024-01-11T08:14:48.069Z,16.63
2024-01-11T08:17:16.374Z,17.10
2024-01-11T08:19:44.147Z,16.80
2024-01-11T08:22:12.840Z,16.77
2024-01-11T08:24:43.009Z,17.57
2024-01-11T08:27:11.077Z,17.20
2024-01-11T08:29:39.801Z,16.07
2024-01-11T08:32:19.653Z,16.07
2024-01-11T08:34:56.902Z,17.70
2024-01-11T08:37:24.816Z,17.23
2024-01-11T08:39:52.712Z,16.40
2024-01-11T08:42:20.392Z,16.97
2024-01-11T08:44:49.070Z,17.87
2024-01-11T08:47:17.385Z,16.57
2024-01-11T08:49:45.472Z,17.00
2024-01-11T08:52:13.545Z,16.63
2024-01-11T08:54:41.064Z,17.50
2024-01-11T08:57:09.006Z,16.10
2024-01-11T08:59:37.157Z,17.43
2024-01-11T09:02:13.599Z,17.33
2024-01-11T09:04:44.453Z,16.50
2024-01-11T09:07:12.522Z,17.37
2024-01-11T09:09:47.947Z,19.07
2024-01-11T09:12:21.797Z,16.90
2024-01-11T09:14:49.874Z,17.20
2024-01-11T09:17:20.477Z,16.57
2024-01-11T09:19:48.652Z,15.93
2024-01-11T09:22:16.233Z,16.07
2024-01-11T09:24:44.386Z,16.97
2024-01-11T09:27:14.366Z,16.80
2024-01-11T09:29:51.186Z,16.97
2024-01-11T09:32:19.542Z,17.30
2024-01-11T09:34:51.589Z,17.23
2024-01-11T09:37:19.514Z,17.43
2024-01-11T09:39:47.634Z,16.43
2024-01-11T09:42:15.785Z,18.20
2024-01-11T09:44:43.838Z,16.53
2024-01-11T09:47:16.001Z,17.00
2024-01-11T09:49:46.328Z,16.90
2024-01-11T09:52:18.452Z,16.70
2024-01-11T09:54:46.587Z,15.93
2024-01-11T09:57:22.640Z,16.73
2024-01-11T09:59:52.737Z,16.83
2024-01-11T10:02:20.603Z,15.70
2024-01-11T10:04:53.866Z,16.30
2024-01-11T10:07:24.130Z,16.43
2024-01-11T10:09:53.031Z,16.03
2024-01-11T10:12:22.084Z,15.30
2024-01-11T10:14:49.427Z,15.23
2024-01-11T10:17:23.012Z,15.33
2024-01-11T10:19:56.743Z,16.50
2024-01-11T10:22:27.937Z,15.80
2024-01-11T10:25:13.041Z,16.13
2024-01-11T10:27:49.785Z,15.70
2024-01-11T10:30:18.534Z,15.90
2024-01-11T10:32:48.190Z,16.33
2024-01-11T10:35:19.028Z,15.17
2024-01-11T10:37:47.104Z,16.03
2024-01-11T10:40:15.731Z,16.43
2024-01-11T10:42:50.683Z,14.80
2024-01-11T10:45:20.553Z,15.60
2024-01-11T10:47:55.856Z,14.73
2024-01-11T10:50:24.975Z,15.10
2024-01-11T10:53:07.928Z,13.90
2024-01-11T10:55:37.197Z,14.33
2024-01-11T10:58:08.914Z,14.23
2024-01-11T11:00:37.390Z,13.60
2024-01-11T11:03:10.408Z,14.53
2024-01-11T11:05:42.848Z,14.57
2024-01-11T11:08:11.913Z,12.77
2024-01-11T11:10:43.693Z,13.97
2024-01-11T11:13:16.998Z,13.77
2024-01-11T11:15:48.638Z,15.40
2024-01-11T11:18:16.555Z,14.17
2024-01-11T11:20:44.572Z,14.67
2024-01-11T11:23:18.695Z,14.33
2024-01-11T11:25:50.690Z,14.30
2024-01-11T11:28:19.650Z,14.30
2024-01-11T11:30:53.639Z,13.37
2024-01-11T11:33:27.962Z,13.83
2024-01-11T11:35:59.000Z,13.47
2024-01-11T11:38:34.889Z,14.23
2024-01-11T11:41:03.056Z,14.30
2024-01-11T11:43:33.456Z,14.83
2024-01-11T11:46:12.019Z,14.50
2024-01-11T11:48:43.383Z,13.80
2024-01-11T11:51:20.543Z,13.83
2024-01-11T11:53:50.221Z,14.27
2024-01-11T11:56:23.964Z,14.53
2024-01-11T11:58:56.796Z,14.70
2024-01-11T12:01:24.471Z,13.73
2024-01-11T12:03:54.325Z,14.17
2024-01-11T12:06:26.137Z,14.77
2024-01-11T12:08:58.000Z,15.07
2024-01-11T12:11:26.834Z,14.40
2024-01-11T12:13:56.660Z,14.30
2024-01-11T12:16:27.869Z,15.10
2024-01-11T12:18:56.132Z,14.70
2024-01-11T12:21:24.026Z,15.17
2024-01-11T12:23:51.291Z,14.83
2024-01-11T12:26:24.776Z,15.57
2024-01-11T12:28:53.475Z,14.07
2024-01-11T12:31:24.187Z,13.60
2024-01-11T12:33:52.836Z,15.73
2024-01-11T12:36:21.625Z,14.77
2024-01-11T12:38:52.636Z,14.97
2024-01-11T12:41:23.197Z,15.33
2024-01-11T12:43:51.905Z,15.93
2024-01-11T12:46:20.845Z,16.83
2024-01-11T12:48:50.412Z,14.63
2024-01-11T12:51:21.779Z,15.13
2024-01-11T12:53:51.378Z,14.40
2024-01-11T12:56:23.306Z,14.60
2024-01-11T12:59:06.591Z,15.50
2024-01-11T13:01:34.690Z,14.00
2024-01-11T13:04:05.162Z,14.70
2024-01-11T13:06:33.994Z,15.37
2024-01-11T13:09:02.630Z,14.90
2024-01-11T13:11:31.276Z,15.53
2024-01-11T13:14:02.500Z,14.90
2024-01-11T13:16:33.552Z,14.20
2024-01-11T13:19:02.213Z,14.60
2024-01-11T13:21:31.477Z,15.37
2024-01-11T13:23:59.808Z,14.50
2024-01-11T13:26:27.811Z,15.40
2024-01-11T13:28:55.250Z,15.57
2024-01-11T13:31:24.050Z,15.80
2024-01-11T13:33:52.368Z,15.43
2024-01-11T13:36:20.262Z,15.13
2024-01-11T13:38:54.471Z,14.67
2024-01-11T13:41:24.527Z,14.67
2024-01-11T13:43:55.932Z,15.37
2024-01-11T13:46:24.826Z,15.27
2024-01-11T13:48:53.022Z,15.53
2024-01-11T13:51:21.038Z,14.67
2024-01-11T13:53:51.379Z,15.80
2024-01-11T13:56:20.381Z,16.30
2024-01-11T13:58:49.251Z,16.17
2024-01-11T14:01:17.409Z,15.77
2024-01-11T14:03:48.033Z,16.70
2024-01-11T14:06:16.998Z,16.97
2024-01-11T14:08:45.001Z,16.33
2024-01-11T14:11:13.012Z,16.07
2024-01-11T14:13:41.279Z,14.40
2024-01-11T14:16:09.511Z,15.10
2024-01-11T14:18:38.516Z,15.87
2024-01-11T14:21:07.535Z,16.00
2024-01-11T14:23:35.622Z,14.57
2024-01-11T14:26:06.958Z,16.40
2024-01-11T14:28:38.201Z,14.83
2024-01-11T14:31:09.229Z,15.23
2024-01-11T14:33:38.224Z,16.03
2024-01-11T14:36:06.303Z,15.33
2024-01-11T14:38:34.276Z,15.77
2024-01-11T14:41:01.595Z,15.00
2024-01-11T14:43:30.475Z,15.57
2024-01-11T14:45:58.392Z,16.57
2024-01-11T14:48:27.052Z,14.77
2024-01-11T14:50:54.945Z,15.47
2024-01-11T14:53:22.934Z,15.57
2024-01-11T14:55:51.208Z,14.63
2024-01-11T14:58:18.976Z,15.83
2024-01-11T15:00:51.206Z,14.57
2024-01-11T15:03:20.653Z,16.23
2024-01-11T15:05:49.772Z,16.27
2024-01-11T15:08:17.724Z,14.73
2024-01-11T15:10:45.686Z,16.10
2024-01-11T15:13:14.334Z,16.07
2024-01-11T15:15:42.760Z,17.07
2024-01-11T15:18:10.846Z,15.53
2024-01-11T15:20:39.398Z,15.83
2024-01-11T15:23:08.598Z,16.37
2024-01-11T15:25:36.240Z,14.80
2024-01-11T15:28:04.520Z,16.77
2024-01-11T15:30:32.576Z,16.50
2024-01-11T15:33:03.174Z,15.73
2024-01-11T15:35:31.159Z,16.20
2024-01-11T15:37:59.825Z,16.53
2024-01-11T15:40:29.024Z,16.80
2024-01-11T15:42:58.943Z,15.57
2024-01-11T15:45:27.316Z,18.77
2024-01-11T15:47:55.324Z,16.83
2024-01-11T15:50:24.454Z,16.87
2024-01-11T15:52:53.249Z,16.67
2024-01-11T15:55:22.408Z,16.97
2024-01-11T15:57:49.866Z,17.43
2024-01-11T16:00:18.290Z,16.27
2024-01-11T16:02:46.886Z,17.77
2024-01-11T16:05:14.478Z,17.43
2024-01-11T16:07:42.212Z,19.10
2024-01-11T16:10:12.676Z,17.77
2024-01-11T16:12:41.228Z,18.43
2024-01-11T16:15:09.028Z,19.43
2024-01-11T16:17:37.455Z,17.97
2024-01-11T16:20:06.405Z,18.33
2024-01-11T16:22:34.240Z,18.33
2024-01-11T16:25:02.694Z,18.67
2024-01-11T16:27:31.403Z,19.80
2024-01-11T16:29:59.529Z,18.57
2024-01-11T16:32:29.179Z,16.93
2024-01-11T16:34:56.813Z,18.13
2024-01-11T16:37:24.303Z,18.73
2024-01-11T16:39:52.069Z,20.17
2024-01-11T16:42:22.084Z,20.90
2024-01-11T16:44:50.220Z,19.53
2024-01-11T16:47:18.130Z,20.27
2024-01-11T16:49:46.381Z,20.70
2024-01-11T16:52:13.963Z,19.17
2024-01-11T16:54:42.679Z,21.53
2024-01-11T16:57:10.244Z,19.47
2024-01-11T16:59:40.893Z,19.87
2024-01-11T17:02:09.523Z,20.67
2024-01-11T17:04:37.778Z,20.97
2024-01-11T17:07:05.065Z,20.10
2024-01-11T17:09:33.030Z,21.30
2024-01-11T17:12:00.533Z,20.67
2024-01-11T17:14:28.423Z,20.73
2024-01-11T17:16:58.254Z,20.63
2024-01-11T17:19:25.925Z,20.60
2024-01-11T17:21:54.096Z,19.93
2024-01-11T17:24:21.979Z,19.10
2024-01-11T17:26:50.184Z,19.80
2024-01-11T17:29:17.641Z,20.47
2024-01-11T17:31:46.035Z,20.40
2024-01-11T17:34:14.173Z,20.47
2024-01-11T17:36:42.866Z,19.13
2024-01-11T17:39:12.180Z,20.07
2024-01-11T17:41:44.248Z,20.43
2024-01-11T17:44:12.380Z,22.27
2024-01-11T17:46:40.531Z,21.33
2024-01-11T17:49:09.515Z,20.00
2024-01-11T17:51:38.326Z,21.30
2024-01-11T17:54:05.889Z,19.93
2024-01-11T17:56:34.347Z,22.53
2024-01-11T17:59:02.264Z,22.23
2024-01-11T18:01:29.860Z,23.33
2024-01-11T18:03:58.521Z,21.17
2024-01-11T18:06:26.276Z,20.93
2024-01-11T18:08:54.472Z,23.70
2024-01-11T18:11:21.909Z,22.63
2024-01-11T18:13:49.714Z,22.40
2024-01-11T18:16:17.208Z,22.00
2024-01-11T18:18:48.191Z,22.43
2024-01-11T18:21:16.518Z,24.57
2024-01-11T18:23:44.367Z,21.47
2024-01-11T18:26:12.641Z,23.47
2024-01-11T18:28:40.129Z,21.80
2024-01-11T18:31:07.475Z,21.00
2024-01-11T18:33:35.980Z,24.60
2024-01-11T18:36:04.175Z,21.67
2024-01-11T18:38:31.986Z,24.47
2024-01-11T18:40:59.451Z,24.33
2024-01-11T18:43:28.381Z,24.57
2024-01-11T18:45:55.811Z,24.20
2024-01-11T18:48:23.600Z,22.63
2024-01-11T18:50:51.495Z,21.47
2024-01-11T18:53:19.333Z,23.07
2024-01-11T18:55:47.162Z,19.83
2024-01-11T18:58:16.363Z,21.40
2024-01-11T19:00:45.112Z,21.43
2024-01-11T19:03:14.451Z,19.50
2024-01-11T19:05:42.283Z,20.83
2024-01-11T19:08:09.892Z,23.80
2024-01-11T19:10:37.551Z,20.13
2024-01-11T19:13:05.137Z,20.90
2024-01-11T19:15:34.820Z,22.93
2024-01-11T19:18:02.514Z,21.17
2024-01-11T19:20:30.404Z,20.97
2024-01-11T19:23:00.137Z,22.37
2024-01-11T19:25:28.088Z,23.30
2024-01-11T19:27:59.597Z,22.97
2024-01-11T19:30:30.348Z,26.40
2024-01-11T19:32:59.310Z,21.43
2024-01-11T19:35:27.762Z,21.13
2024-01-11T19:37:54.975Z,21.57
2024-01-11T19:40:22.444Z,23.50
2024-01-11T19:42:49.957Z,24.70
2024-01-11T19:45:18.199Z,24.57
2024-01-11T19:47:46.029Z,27.60
2024-01-11T19:50:14.159Z,26.40
2024-01-11T19:52:42.292Z,25.80
2024-01-11T19:55:10.378Z,26.23
2024-01-11T19:57:38.091Z,23.40
2024-01-11T20:00:07.085Z,24.13
2024-01-11T20:30:17.561Z,24.77
2024-01-11T20:32:46.126Z,25.63
2024-01-11T20:35:17.876Z,25.43
2024-01-11T20:37:45.584Z,24.87
2024-01-11T20:40:15.685Z,25.47
2024-01-11T20:42:43.718Z,25.83
2024-01-11T20:45:13.621Z,24.83
2024-01-11T20:47:41.959Z,26.67
2024-01-11T20:50:10.714Z,27.53
2024-01-11T20:52:39.114Z,25.10
2024-01-11T20:55:09.341Z,26.37
2024-01-11T20:57:37.466Z,25.93
2024-01-11T21:00:10.536Z,26.60
2024-01-11T21:02:39.168Z,26.23
2024-01-11T21:05:10.261Z,25.50
2024-01-11T21:07:39.736Z,27.57
2024-01-11T21:10:09.730Z,27.03
2024-01-11T21:12:39.343Z,25.27
2024-01-11T21:15:09.087Z,26.70
2024-01-11T21:17:40.108Z,24.67
2024-01-11T21:20:08.516Z,25.43
2024-01-11T21:22:38.107Z,27.40
2024-01-11T21:25:07.633Z,27.50
2024-01-11T21:27:40.117Z,25.30
2024-01-11T21:30:11.632Z,25.67
2024-01-11T21:32:41.828Z,25.37
2024-01-11T21:35:09.554Z,25.63
2024-01-11T21:37:37.139Z,25.73
2024-01-11T21:40:05.796Z,24.97
2024-01-11T21:42:34.404Z,26.00
2024-01-11T21:45:02.272Z,26.27
2024-01-11T21:47:29.710Z,24.67
2024-01-11T21:49:57.226Z,25.00
2024-01-11T21:52:26.184Z,25.97
2024-01-11T21:54:53.919Z,26.60
2024-01-11T21:57:26.305Z,25.50
2024-01-11T21:59:53.734Z,26.00
2024-01-11T22:02:21.760Z,24.07
2024-01-11T22:04:49.440Z,26.03
2024-01-11T22:07:17.744Z,25.40
2024-01-11T22:09:46.009Z,25.50
2024-01-11T22:12:13.479Z,24.37
2024-01-11T22:14:41.023Z,25.57
2024-01-11T22:17:10.021Z,25.37
2024-01-11T22:19:37.977Z,24.70
2024-01-11T22:22:06.138Z,24.67
2024-01-11T22:24:33.884Z,24.20
2024-01-11T22:27:01.975Z,25.10
2024-01-11T22:29:29.939Z,25.53
2024-01-11T22:31:57.425Z,24.77
2024-01-11T22:34:26.390Z,22.10
2024-01-11T22:36:53.784Z,24.17
2024-01-11T22:39:21.333Z,24.50
2024-01-11T22:41:48.944Z,23.30
2024-01-11T22:44:16.766Z,25.57
2024-01-11T22:46:44.000Z,23.03
2024-01-11T22:49:11.902Z,24.97
2024-01-11T22:51:40.279Z,25.03
2024-01-11T22:54:08.596Z,23.20
2024-01-11T22:56:38.028Z,23.77
2024-01-11T22:59:06.797Z,24.20
2024-01-11T23:01:34.271Z,24.07
2024-01-11T23:04:01.902Z,23.17
2024-01-11T23:06:30.119Z,23.47
2024-01-11T23:08:57.871Z,23.57
2024-01-11T23:11:25.156Z,23.50
2024-01-11T23:13:53.655Z,22.60
2024-01-11T23:16:21.032Z,24.67
2024-01-11T23:18:48.728Z,23.90
2024-01-11T23:21:16.359Z,25.43
2024-01-11T23:23:44.162Z,22.93
2024-01-11T23:26:11.547Z,23.70
2024-01-11T23:28:39.404Z,22.73
2024-01-11T23:31:07.700Z,22.07
2024-01-11T23:33:35.573Z,23.53
2024-01-11T23:36:03.730Z,22.70
2024-01-11T23:38:30.876Z,21.80
2024-01-11T23:40:59.460Z,20.23
2024-01-11T23:43:27.589Z,23.80
2024-01-11T23:45:54.829Z,20.00
2024-01-11T23:48:23.563Z,22.27
2024-01-11T23:50:51.214Z,21.17
2024-01-11T23:53:19.611Z,20.70
2024-01-11T23:55:46.770Z,20.80
2024-01-11T23:58:13.955Z,20.70
